sensor_id;sensor_type;location;lat;lon;timestamp;pressure;altitude;pressure_sealevel;temperature;humidity
64841;BME280;51307;52.162;7.560;2024-02-26T00:00:27;99603.16;;;5.68;68.15
64841;BME280;51307;52.162;7.560;2024-02-26T00:02:54;99608.03;;;5.81;67.88
64841;BME280;51307;52.162;7.560;2024-02-26T00:05:19;99598.72;;;5.77;68.05
64841;BME280;51307;52.162;7.560;2024-02-26T00:07:45;99589.94;;;5.85;67.75
64841;BME280;51307;52.162;7.560;2024-02-26T00:10:13;99594.34;;;5.60;69.02
64841;BME280;51307;52.162;7.560;2024-02-26T00:12:38;99597.91;;;5.85;67.83
64841;BME280;51307;52.162;7.560;2024-02-26T00:15:08;99600.97;;;5.64;68.43
64841;BME280;51307;52.162;7.560;2024-02-26T00:17:33;99586.69;;;5.65;69.04
64841;BME280;51307;52.162;7.560;2024-02-26T00:19:59;99591.00;;;5.57;69.08
64841;BME280;51307;52.162;7.560;2024-02-26T00:22:26;99599.28;;;5.54;69.19
64841;BME280;51307;52.162;7.560;2024-02-26T00:24:51;99594.28;;;5.51;69.54
64841;BME280;51307;52.162;7.560;2024-02-26T00:27:17;99586.13;;;5.45;69.59
64841;BME280;51307;52.162;7.560;2024-02-26T00:29:43;99598.09;;;5.49;68.98
64841;BME280;51307;52.162;7.560;2024-02-26T00:32:08;99599.56;;;5.78;68.21
64841;BME280;51307;52.162;7.560;2024-02-26T00:34:33;99601.25;;;5.87;67.72
64841;BME280;51307;52.162;7.560;2024-02-26T00:36:59;99587.25;;;5.77;67.67
64841;BME280;51307;52.162;7.560;2024-02-26T00:39:24;99602.56;;;5.83;67.42
64841;BME280;51307;52.162;7.560;2024-02-26T00:41:50;99592.59;;;5.85;67.15
64841;BME280;51307;52.162;7.560;2024-02-26T00:44:17;99597.63;;;5.88;67.22
64841;BME280;51307;52.162;7.560;2024-02-26T00:46:42;99596.72;;;5.79;67.63
64841;BME280;51307;52.162;7.560;2024-02-26T00:49:08;99593.13;;;5.88;67.13
64841;BME280;51307;52.162;7.560;2024-02-26T00:51:33;99593.00;;;5.98;66.83
64841;BME280;51307;52.162;7.560;2024-02-26T00:53:59;99594.44;;;5.84;67.25
64841;BME280;51307;52.162;7.560;2024-02-26T00:56:24;99596.41;;;5.82;67.25
64841;BME280;51307;52.162;7.560;2024-02-26T00:58:50;99591.47;;;5.87;67.32
64841;BME280;51307;52.162;7.560;2024-02-26T01:01:17;99594.97;;;5.88;67.45
64841;BME280;51307;52.162;7.560;2024-02-26T01:03:42;99591.41;;;5.71;68.27
64841;BME280;51307;52.162;7.560;2024-02-26T01:06:08;99601.22;;;5.52;68.77
64841;BME280;51307;52.162;7.560;2024-02-26T01:08:33;99610.00;;;5.45;69.26
64841;BME280;51307;52.162;7.560;2024-02-26T01:11:01;99606.38;;;5.54;68.88
64841;BME280;51307;52.162;7.560;2024-02-26T01:13:26;99619.59;;;5.46;69.23
64841;BME280;51307;52.162;7.560;2024-02-26T01:15:51;99614.94;;;5.39;69.29
64841;BME280;51307;52.162;7.560;2024-02-26T01:18:17;99621.47;;;5.53;68.85
64841;BME280;51307;52.162;7.560;2024-02-26T01:20:42;99625.22;;;5.43;69.16
64841;BME280;51307;52.162;7.560;2024-02-26T01:23:08;99616.25;;;5.70;68.15
64841;BME280;51307;52.162;7.560;2024-02-26T01:25:33;99611.06;;;5.60;68.08
64841;BME280;51307;52.162;7.560;2024-02-26T01:27:59;99605.41;;;5.55;67.93
64841;BME280;51307;52.162;7.560;2024-02-26T01:30:24;99591.91;;;5.75;67.30
64841;BME280;51307;52.162;7.560;2024-02-26T01:32:50;99596.50;;;5.64;67.75
64841;BME280;51307;52.162;7.560;2024-02-26T01:35:15;99594.53;;;5.66;67.72
64841;BME280;51307;52.162;7.560;2024-02-26T01:37:42;99596.03;;;5.69;67.97
64841;BME280;51307;52.162;7.560;2024-02-26T01:40:07;99591.59;;;5.78;67.60
64841;BME280;51307;52.162;7.560;2024-02-26T01:42:38;99589.91;;;5.77;67.45
64841;BME280;51307;52.162;7.560;2024-02-26T01:45:04;99585.13;;;5.80;67.29
64841;BME280;51307;52.162;7.560;2024-02-26T01:47:31;99591.41;;;5.71;67.80
64841;BME280;51307;52.162;7.560;2024-02-26T01:49:57;99589.09;;;5.76;67.50
64841;BME280;51307;52.162;7.560;2024-02-26T01:52:23;99581.41;;;5.65;67.72
64841;BME280;51307;52.162;7.560;2024-02-26T01:54:49;99586.59;;;5.75;67.46
64841;BME280;51307;52.162;7.560;2024-02-26T01:57:15;99586.81;;;5.55;68.14
64841;BME280;51307;52.162;7.560;2024-02-26T01:59:42;99584.91;;;5.65;67.60
64841;BME280;51307;52.162;7.560;2024-02-26T02:02:10;99592.69;;;5.67;67.71
64841;BME280;51307;52.162;7.560;2024-02-26T02:04:37;99598.91;;;5.76;67.50
64841;BME280;51307;52.162;7.560;2024-02-26T02:07:02;99590.63;;;5.52;68.13
64841;BME280;51307;52.162;7.560;2024-02-26T02:09:28;99592.84;;;5.65;67.78
64841;BME280;51307;52.162;7.560;2024-02-26T02:11:54;99593.19;;;5.62;68.05
64841;BME280;51307;52.162;7.560;2024-02-26T02:14:21;99588.72;;;5.71;67.32
64841;BME280;51307;52.162;7.560;2024-02-26T02:16:47;99583.59;;;5.69;67.81
64841;BME280;51307;52.162;7.560;2024-02-26T02:19:13;99587.56;;;5.65;68.11
64841;BME280;51307;52.162;7.560;2024-02-26T02:21:38;99587.88;;;5.62;67.78
64841;BME280;51307;52.162;7.560;2024-02-26T02:24:04;99603.06;;;5.52;68.24
64841;BME280;51307;52.162;7.560;2024-02-26T02:26:30;99590.38;;;5.64;67.99
64841;BME280;51307;52.162;7.560;2024-02-26T02:28:56;99596.50;;;5.64;67.80
64841;BME280;51307;52.162;7.560;2024-02-26T02:31:22;99597.53;;;5.71;67.93
64841;BME280;51307;52.162;7.560;2024-02-26T02:33:48;99597.44;;;5.55;68.48
64841;BME280;51307;52.162;7.560;2024-02-26T02:36:14;99594.81;;;5.63;68.38
64841;BME280;51307;52.162;7.560;2024-02-26T02:38:49;99599.16;;;5.64;68.59
64841;BME280;51307;52.162;7.560;2024-02-26T02:41:18;99593.84;;;5.64;68.42
64841;BME280;51307;52.162;7.560;2024-02-26T02:43:44;99600.16;;;5.71;68.46
64841;BME280;51307;52.162;7.560;2024-02-26T02:46:09;99602.34;;;5.68;68.39
64841;BME280;51307;52.162;7.560;2024-02-26T02:48:37;99605.47;;;5.71;68.17
64841;BME280;51307;52.162;7.560;2024-02-26T02:51:03;99608.13;;;5.71;68.29
64841;BME280;51307;52.162;7.560;2024-02-26T02:53:29;99611.84;;;5.79;68.44
64841;BME280;51307;52.162;7.560;2024-02-26T02:55:54;99612.78;;;5.69;68.52
64841;BME280;51307;52.162;7.560;2024-02-26T02:58:19;99618.66;;;5.55;69.10
64841;BME280;51307;52.162;7.560;2024-02-26T03:00:45;99618.56;;;5.65;68.62
64841;BME280;51307;52.162;7.560;2024-02-26T03:03:10;99623.41;;;5.69;68.67
64841;BME280;51307;52.162;7.560;2024-02-26T03:05:36;99617.09;;;5.70;68.51
64841;BME280;51307;52.162;7.560;2024-02-26T03:08:01;99614.28;;;5.72;68.59
64841;BME280;51307;52.162;7.560;2024-02-26T03:10:27;99621.88;;;5.67;68.97
64841;BME280;51307;52.162;7.560;2024-02-26T03:12:53;99633.03;;;5.70;68.78
64841;BME280;51307;52.162;7.560;2024-02-26T03:15:19;99641.16;;;5.69;69.16
64841;BME280;51307;52.162;7.560;2024-02-26T03:17:44;99638.84;;;5.74;68.23
64841;BME280;51307;52.162;7.560;2024-02-26T03:20:10;99644.47;;;5.71;68.51
64841;BME280;51307;52.162;7.560;2024-02-26T03:22:38;99639.69;;;5.75;68.51
64841;BME280;51307;52.162;7.560;2024-02-26T03:25:04;99645.44;;;5.70;69.01
64841;BME280;51307;52.162;7.560;2024-02-26T03:27:30;99654.94;;;5.72;68.81
64841;BME280;51307;52.162;7.560;2024-02-26T03:29:55;99656.91;;;5.70;68.73
64841;BME280;51307;52.162;7.560;2024-02-26T03:32:21;99646.97;;;5.72;68.42
64841;BME280;51307;52.162;7.560;2024-02-26T03:34:46;99652.97;;;5.75;68.33
64841;BME280;51307;52.162;7.560;2024-02-26T03:37:12;99656.34;;;5.59;68.84
64841;BME280;51307;52.162;7.560;2024-02-26T03:39:37;99659.25;;;5.73;68.21
64841;BME280;51307;52.162;7.560;2024-02-26T03:42:03;99662.88;;;5.72;68.34
64841;BME280;51307;52.162;7.560;2024-02-26T03:44:29;99658.09;;;5.76;68.02
64841;BME280;51307;52.162;7.560;2024-02-26T03:46:54;99662.22;;;5.70;68.57
64841;BME280;51307;52.162;7.560;2024-02-26T03:49:21;99661.91;;;5.73;68.17
64841;BME280;51307;52.162;7.560;2024-02-26T03:51:47;99664.88;;;5.70;68.61
64841;BME280;51307;52.162;7.560;2024-02-26T03:54:13;99674.19;;;5.75;68.28
64841;BME280;51307;52.162;7.560;2024-02-26T03:56:39;99663.22;;;5.69;68.25
64841;BME280;51307;52.162;7.560;2024-02-26T03:59:04;99652.66;;;5.51;68.61
64841;BME280;51307;52.162;7.560;2024-02-26T04:01:30;99663.41;;;5.76;68.48
64841;BME280;51307;52.162;7.560;2024-02-26T04:03:55;99658.44;;;5.73;68.21
64841;BME280;51307;52.162;7.560;2024-02-26T04:06:21;99666.19;;;5.66;68.09
64841;BME280;51307;52.162;7.560;2024-02-26T04:08:48;99664.88;;;5.70;68.16
64841;BME280;51307;52.162;7.560;2024-02-26T04:11:14;99666.19;;;5.66;68.05
64841;BME280;51307;52.162;7.560;2024-02-26T04:13:46;99673.47;;;5.64;68.47
64841;BME280;51307;52.162;7.560;2024-02-26T04:16:14;99670.84;;;5.72;68.46
64841;BME280;51307;52.162;7.560;2024-02-26T04:18:40;99671.84;;;5.71;68.54
64841;BME280;51307;52.162;7.560;2024-02-26T04:21:05;99672.00;;;5.70;68.06
64841;BME280;51307;52.162;7.560;2024-02-26T04:23:32;99670.84;;;5.72;68.09
64841;BME280;51307;52.162;7.560;2024-02-26T04:25:58;99667.50;;;5.44;68.89
64841;BME280;51307;52.162;7.560;2024-02-26T04:28:23;99668.84;;;5.66;67.98
64841;BME280;51307;52.162;7.560;2024-02-26T04:30:51;99675.78;;;5.67;67.89
64841;BME280;51307;52.162;7.560;2024-02-26T04:33:17;99678.41;;;5.59;68.34
64841;BME280;51307;52.162;7.560;2024-02-26T04:35:42;99678.09;;;5.62;67.62
64841;BME280;51307;52.162;7.560;2024-02-26T04:38:08;99679.09;;;5.61;68.30
64841;BME280;51307;52.162;7.560;2024-02-26T04:40:33;99681.94;;;5.68;68.08
64841;BME280;51307;52.162;7.560;2024-02-26T04:42:58;99684.44;;;5.69;67.85
64841;BME280;51307;52.162;7.560;2024-02-26T04:45:24;99681.78;;;5.69;68.01
64841;BME280;51307;52.162;7.560;2024-02-26T04:47:49;99682.78;;;5.68;67.44
64841;BME280;51307;52.162;7.560;2024-02-26T04:50:15;99688.94;;;5.69;67.49
64841;BME280;51307;52.162;7.560;2024-02-26T04:52:41;99685.09;;;5.71;67.51
64841;BME280;51307;52.162;7.560;2024-02-26T04:55:06;99686.94;;;5.71;67.30
64841;BME280;51307;52.162;7.560;2024-02-26T04:57:32;99685.59;;;5.67;67.43
64841;BME280;51307;52.162;7.560;2024-02-26T04:59:58;99691.31;;;5.80;67.00
64841;BME280;51307;52.162;7.560;2024-02-26T05:02:23;99694.44;;;5.76;67.48
64841;BME280;51307;52.162;7.560;2024-02-26T05:04:49;99695.09;;;5.78;67.88
64841;BME280;51307;52.162;7.560;2024-02-26T05:07:15;99698.25;;;5.73;67.63
64841;BME280;51307;52.162;7.560;2024-02-26T05:09:43;99701.34;;;5.68;67.66
64841;BME280;51307;52.162;7.560;2024-02-26T05:12:09;99695.06;;;5.69;67.67
64841;BME280;51307;52.162;7.560;2024-02-26T05:14:35;99691.88;;;5.66;67.91
64841;BME280;51307;52.162;7.560;2024-02-26T05:17:00;99692.56;;;5.68;67.33
64841;BME280;51307;52.162;7.560;2024-02-26T05:19:25;99693.72;;;5.65;67.51
64841;BME280;51307;52.162;7.560;2024-02-26T05:21:51;99690.34;;;5.63;67.26
64841;BME280;51307;52.162;7.560;2024-02-26T05:24:16;99701.63;;;5.57;68.24
64841;BME280;51307;52.162;7.560;2024-02-26T05:26:43;99700.16;;;5.63;68.03
64841;BME280;51307;52.162;7.560;2024-02-26T05:29:09;99701.13;;;5.62;68.28
64841;BME280;51307;52.162;7.560;2024-02-26T05:31:34;99705.34;;;5.72;67.81
64841;BME280;51307;52.162;7.560;2024-02-26T05:34:00;99710.28;;;5.67;67.78
64841;BME280;51307;52.162;7.560;2024-02-26T05:36:25;99707.41;;;5.61;68.21
64841;BME280;51307;52.162;7.560;2024-02-26T05:38:51;99714.19;;;5.55;68.20
64841;BME280;51307;52.162;7.560;2024-02-26T05:41:17;99712.94;;;5.67;68.12
64841;BME280;51307;52.162;7.560;2024-02-26T05:43:54;99712.66;;;5.70;68.04
64841;BME280;51307;52.162;7.560;2024-02-26T05:46:20;99712.50;;;5.72;68.42
64841;BME280;51307;52.162;7.560;2024-02-26T05:48:48;99717.03;;;5.80;68.21
64841;BME280;51307;52.162;7.560;2024-02-26T05:51:13;99719.22;;;5.84;68.33
64841;BME280;51307;52.162;7.560;2024-02-26T05:53:40;99723.69;;;5.84;67.92
64841;BME280;51307;52.162;7.560;2024-02-26T05:56:06;99716.88;;;5.81;68.13
64841;BME280;51307;52.162;7.560;2024-02-26T05:58:31;99721.88;;;5.84;67.62
64841;BME280;51307;52.162;7.560;2024-02-26T06:00:57;99728.06;;;5.93;67.41
64841;BME280;51307;52.162;7.560;2024-02-26T06:03:22;99732.69;;;5.91;67.39
64841;BME280;51307;52.162;7.560;2024-02-26T06:05:48;99740.97;;;5.88;67.06
64841;BME280;51307;52.162;7.560;2024-02-26T06:08:13;99738.78;;;5.83;67.29
64841;BME280;51307;52.162;7.560;2024-02-26T06:10:39;99733.22;;;5.95;66.56
64841;BME280;51307;52.162;7.560;2024-02-26T06:13:05;99738.06;;;5.99;66.58
64841;BME280;51307;52.162;7.560;2024-02-26T06:15:30;99750.97;;;5.94;66.63
64841;BME280;51307;52.162;7.560;2024-02-26T06:17:56;99741.28;;;5.85;66.44
64841;BME280;51307;52.162;7.560;2024-02-26T06:20:21;99749.09;;;5.86;66.31
64841;BME280;51307;52.162;7.560;2024-02-26T06:22:47;99751.44;;;5.89;66.18
64841;BME280;51307;52.162;7.560;2024-02-26T06:25:12;99755.91;;;5.89;66.28
64841;BME280;51307;52.162;7.560;2024-02-26T06:27:38;99746.94;;;5.90;66.51
64841;BME280;51307;52.162;7.560;2024-02-26T06:30:03;99750.91;;;5.86;66.25
64841;BME280;51307;52.162;7.560;2024-02-26T06:32:29;99759.72;;;5.86;66.46
64841;BME280;51307;52.162;7.560;2024-02-26T06:34:55;99756.91;;;5.88;67.01
64841;BME280;51307;52.162;7.560;2024-02-26T06:37:21;99754.31;;;5.78;66.79
64841;BME280;51307;52.162;7.560;2024-02-26T06:39:47;99760.66;;;5.77;67.29
64841;BME280;51307;52.162;7.560;2024-02-26T06:42:12;99759.03;;;5.84;67.46
64841;BME280;51307;52.162;7.560;2024-02-26T06:44:38;99766.13;;;5.76;67.57
64841;BME280;51307;52.162;7.560;2024-02-26T06:47:03;99768.91;;;5.74;68.09
64841;BME280;51307;52.162;7.560;2024-02-26T06:49:29;99769.50;;;5.86;67.73
64841;BME280;51307;52.162;7.560;2024-02-26T06:51:55;99766.56;;;5.71;68.26
64841;BME280;51307;52.162;7.560;2024-02-26T06:54:20;99773.69;;;5.70;67.99
64841;BME280;51307;52.162;7.560;2024-02-26T06:56:46;99777.03;;;5.72;68.71
64841;BME280;51307;52.162;7.560;2024-02-26T06:59:12;99775.44;;;5.80;68.54
64841;BME280;51307;52.162;7.560;2024-02-26T07:01:41;99778.25;;;5.60;69.19
64841;BME280;51307;52.162;7.560;2024-02-26T07:04:06;99782.88;;;5.76;69.11
64841;BME280;51307;52.162;7.560;2024-02-26T07:06:32;99783.19;;;5.73;68.67
64841;BME280;51307;52.162;7.560;2024-02-26T07:08:57;99788.53;;;5.81;68.57
64841;BME280;51307;52.162;7.560;2024-02-26T07:11:23;99790.28;;;5.72;68.98
64841;BME280;51307;52.162;7.560;2024-02-26T07:13:48;99790.50;;;5.79;67.99
64841;BME280;51307;52.162;7.560;2024-02-26T07:16:15;99792.34;;;5.79;68.11
64841;BME280;51307;52.162;7.560;2024-02-26T07:18:40;99794.16;;;5.60;68.23
64841;BME280;51307;52.162;7.560;2024-02-26T07:21:06;99798.41;;;5.71;68.66
64841;BME280;51307;52.162;7.560;2024-02-26T07:23:32;99792.13;;;5.72;68.64
64841;BME280;51307;52.162;7.560;2024-02-26T07:25:57;99798.25;;;5.72;68.04
64841;BME280;51307;52.162;7.560;2024-02-26T07:28:24;99791.16;;;5.73;67.99
64841;BME280;51307;52.162;7.560;2024-02-26T07:30:49;99787.56;;;5.64;69.09
64841;BME280;51307;52.162;7.560;2024-02-26T07:33:15;99778.09;;;5.62;68.38
64841;BME280;51307;52.162;7.560;2024-02-26T07:35:40;99783.19;;;5.55;68.45
64841;BME280;51307;52.162;7.560;2024-02-26T07:38:06;99789.56;;;5.62;68.89
64841;BME280;51307;52.162;7.560;2024-02-26T07:40:31;99785.75;;;5.65;69.38
64841;BME280;51307;52.162;7.560;2024-02-26T07:42:57;99786.66;;;5.73;68.35
64841;BME280;51307;52.162;7.560;2024-02-26T07:45:22;99793.28;;;5.51;68.65
64841;BME280;51307;52.162;7.560;2024-02-26T07:47:48;99775.97;;;5.65;68.31
64841;BME280;51307;52.162;7.560;2024-02-26T07:50:14;99779.59;;;5.64;68.04
64841;BME280;51307;52.162;7.560;2024-02-26T07:52:40;99771.66;;;5.64;67.85
64841;BME280;51307;52.162;7.560;2024-02-26T07:55:06;99783.19;;;5.55;68.55
64841;BME280;51307;52.162;7.560;2024-02-26T07:57:35;99779.84;;;5.71;68.46
64841;BME280;51307;52.162;7.560;2024-02-26T08:00:02;99781.50;;;5.72;68.51
64841;BME280;51307;52.162;7.560;2024-02-26T08:02:28;99780.81;;;5.70;69.01
64841;BME280;51307;52.162;7.560;2024-02-26T08:04:54;99783.31;;;5.71;68.98
64841;BME280;51307;52.162;7.560;2024-02-26T08:07:19;99787.19;;;5.77;69.01
64841;BME280;51307;52.162;7.560;2024-02-26T08:09:46;99797.72;;;5.87;69.34
64841;BME280;51307;52.162;7.560;2024-02-26T08:12:12;99799.94;;;5.73;69.40
64841;BME280;51307;52.162;7.560;2024-02-26T08:14:38;99805.31;;;5.82;68.80
64841;BME280;51307;52.162;7.560;2024-02-26T08:17:03;99813.09;;;5.83;68.25
64841;BME280;51307;52.162;7.560;2024-02-26T08:19:29;99812.28;;;5.83;68.04
64841;BME280;51307;52.162;7.560;2024-02-26T08:21:54;99815.25;;;5.80;67.87
64841;BME280;51307;52.162;7.560;2024-02-26T08:24:20;99817.75;;;5.81;68.00
64841;BME280;51307;52.162;7.560;2024-02-26T08:26:45;99827.91;;;5.86;68.07
64841;BME280;51307;52.162;7.560;2024-02-26T08:29:11;99833.22;;;5.86;68.10
64841;BME280;51307;52.162;7.560;2024-02-26T08:31:36;99836.56;;;5.88;67.66
64841;BME280;51307;52.162;7.560;2024-02-26T08:34:05;99837.38;;;5.88;68.05
64841;BME280;51307;52.162;7.560;2024-02-26T08:36:33;99842.16;;;5.85;68.13
64841;BME280;51307;52.162;7.560;2024-02-26T08:38:58;99844.53;;;5.88;67.60
64841;BME280;51307;52.162;7.560;2024-02-26T08:41:24;99844.53;;;5.88;67.85
64841;BME280;51307;52.162;7.560;2024-02-26T08:43:49;99844.69;;;5.86;68.30
64841;BME280;51307;52.162;7.560;2024-02-26T08:46:15;99848.22;;;5.95;68.13
64841;BME280;51307;52.162;7.560;2024-02-26T08:48:40;99853.16;;;5.90;67.63
64841;BME280;51307;52.162;7.560;2024-02-26T08:51:06;99852.22;;;5.99;67.93
64841;BME280;51307;52.162;7.560;2024-02-26T08:53:32;99861.75;;;5.84;68.36
64841;BME280;51307;52.162;7.560;2024-02-26T08:55:58;99865.13;;;5.94;68.49
64841;BME280;51307;52.162;7.560;2024-02-26T08:58:23;99867.28;;;5.90;68.53
64841;BME280;51307;52.162;7.560;2024-02-26T09:00:49;99865.13;;;5.94;68.72
64841;BME280;51307;52.162;7.560;2024-02-26T09:03:14;99878.72;;;5.91;69.03
64841;BME280;51307;52.162;7.560;2024-02-26T09:05:39;99881.00;;;5.86;69.49
64841;BME280;51307;52.162;7.560;2024-02-26T09:08:05;99881.00;;;5.86;69.23
64841;BME280;51307;52.162;7.560;2024-02-26T09:10:31;99883.34;;;5.89;69.62
64841;BME280;51307;52.162;7.560;2024-02-26T09:12:58;99887.97;;;5.87;70.01
64841;BME280;51307;52.162;7.560;2024-02-26T09:15:24;99892.50;;;5.77;70.06
64841;BME280;51307;52.162;7.560;2024-02-26T09:17:49;99894.34;;;5.94;70.31
64841;BME280;51307;52.162;7.560;2024-02-26T09:20:16;99903.44;;;5.92;70.63
64841;BME280;51307;52.162;7.560;2024-02-26T09:22:45;99888.88;;;5.96;70.57
64841;BME280;51307;52.162;7.560;2024-02-26T09:25:11;99907.38;;;5.87;69.86
64841;BME280;51307;52.162;7.560;2024-02-26T09:27:36;99899.38;;;5.97;70.63
64841;BME280;51307;52.162;7.560;2024-02-26T09:30:02;99903.44;;;5.92;71.10
64841;BME280;51307;52.162;7.560;2024-02-26T09:32:28;99900.72;;;6.01;70.72
64841;BME280;51307;52.162;7.560;2024-02-26T09:34:53;99904.59;;;6.07;70.29
64841;BME280;51307;52.162;7.560;2024-02-26T09:37:19;99916.19;;;6.06;71.43
64841;BME280;51307;52.162;7.560;2024-02-26T09:39:44;99911.03;;;6.04;70.46
64841;BME280;51307;52.162;7.560;2024-02-26T09:42:12;99923.03;;;6.09;70.92
64841;BME280;51307;52.162;7.560;2024-02-26T09:44:40;99919.66;;;6.06;71.29
64841;BME280;51307;52.162;7.560;2024-02-26T09:47:10;99927.41;;;6.18;71.01
64841;BME280;51307;52.162;7.560;2024-02-26T09:49:36;99931.75;;;6.01;71.21
64841;BME280;51307;52.162;7.560;2024-02-26T09:52:04;99925.06;;;6.15;70.66
64841;BME280;51307;52.162;7.560;2024-02-26T09:54:31;99932.59;;;6.01;70.75
64841;BME280;51307;52.162;7.560;2024-02-26T09:57:02;99935.47;;;6.08;70.90
64841;BME280;51307;52.162;7.560;2024-02-26T09:59:41;99938.09;;;6.26;69.92
64841;BME280;51307;52.162;7.560;2024-02-26T10:02:14;99942.59;;;6.26;70.85
64841;BME280;51307;52.162;7.560;2024-02-26T10:04:40;99944.94;;;6.29;70.05
64841;BME280;51307;52.162;7.560;2024-02-26T10:07:12;99949.88;;;6.23;70.17
64841;BME280;51307;52.162;7.560;2024-02-26T10:09:39;99954.28;;;6.33;70.18
64841;BME280;51307;52.162;7.560;2024-02-26T10:12:07;99960.94;;;6.37;69.67
64841;BME280;51307;52.162;7.560;2024-02-26T10:14:34;99958.81;;;6.40;70.06
64841;BME280;51307;52.162;7.560;2024-02-26T10:16:59;99969.13;;;6.44;69.82
64841;BME280;51307;52.162;7.560;2024-02-26T10:19:31;99968.25;;;6.35;69.19
64841;BME280;51307;52.162;7.560;2024-02-26T10:21:58;99971.56;;;6.37;68.94
64841;BME280;51307;52.162;7.560;2024-02-26T10:24:30;99976.88;;;6.37;69.46
64841;BME280;51307;52.162;7.560;2024-02-26T10:26:57;99984.25;;;6.43;69.65
64841;BME280;51307;52.162;7.560;2024-02-26T10:29:24;99982.91;;;6.39;68.83
64841;BME280;51307;52.162;7.560;2024-02-26T10:31:51;99982.03;;;6.38;69.10
64841;BME280;51307;52.162;7.560;2024-02-26T10:34:17;99983.13;;;6.46;68.87
64841;BME280;51307;52.162;7.560;2024-02-26T10:36:43;99987.19;;;6.40;68.96
64841;BME280;51307;52.162;7.560;2024-02-26T10:39:14;99991.84;;;6.38;69.12
64841;BME280;51307;52.162;7.560;2024-02-26T10:41:41;99993.38;;;6.40;68.52
64841;BME280;51307;52.162;7.560;2024-02-26T10:44:10;100004.00;;;6.40;69.13
64841;BME280;51307;52.162;7.560;2024-02-26T10:46:40;100000.50;;;6.40;68.51
64841;BME280;51307;52.162;7.560;2024-02-26T10:49:13;100003.22;;;6.48;68.48
64841;BME280;51307;52.162;7.560;2024-02-26T10:51:44;100009.38;;;6.49;68.87
64841;BME280;51307;52.162;7.560;2024-02-26T10:54:15;100007.63;;;6.39;68.14
64841;BME280;51307;52.162;7.560;2024-02-26T10:56:42;100003.44;;;6.55;67.99
64841;BME280;51307;52.162;7.560;2024-02-26T10:59:11;100007.94;;;6.36;67.85
64841;BME280;51307;52.162;7.560;2024-02-26T11:01:38;100000.56;;;6.48;67.55
64841;BME280;51307;52.162;7.560;2024-02-26T11:04:08;100008.91;;;6.53;68.27
64841;BME280;51307;52.162;7.560;2024-02-26T11:06:34;100011.28;;;6.56;67.46
64841;BME280;51307;52.162;7.560;2024-02-26T11:09:02;100013.56;;;6.51;66.73
64841;BME280;51307;52.162;7.560;2024-02-26T11:11:31;100003.59;;;6.53;66.92
64841;BME280;51307;52.162;7.560;2024-02-26T11:13:57;100015.44;;;6.41;67.48
64841;BME280;51307;52.162;7.560;2024-02-26T11:16:25;100012.16;;;6.65;66.99
64841;BME280;51307;52.162;7.560;2024-02-26T11:18:53;100008.97;;;6.62;67.30
64841;BME280;51307;52.162;7.560;2024-02-26T11:21:21;100006.09;;;6.55;66.76
64841;BME280;51307;52.162;7.560;2024-02-26T11:23:57;100011.13;;;6.58;66.77
64841;BME280;51307;52.162;7.560;2024-02-26T11:26:24;100023.94;;;6.63;67.06
64841;BME280;51307;52.162;7.560;2024-02-26T11:28:52;100020.31;;;6.64;66.91
64841;BME280;51307;52.162;7.560;2024-02-26T11:31:18;100022.97;;;6.64;67.11
64841;BME280;51307;52.162;7.560;2024-02-26T11:33:52;100023.19;;;6.70;67.28
64841;BME280;51307;52.162;7.560;2024-02-26T11:36:18;100031.09;;;6.62;67.70
64841;BME280;51307;52.162;7.560;2024-02-26T11:38:46;100023.72;;;6.56;67.88
64841;BME280;51307;52.162;7.560;2024-02-26T11:41:15;100019.16;;;6.48;67.57
64841;BME280;51307;52.162;7.560;2024-02-26T11:43:58;100018.03;;;6.69;68.28
64841;BME280;51307;52.162;7.560;2024-02-26T11:46:30;100015.53;;;6.67;67.83
64841;BME280;51307;52.162;7.560;2024-02-26T11:51:52;100028.75;;;6.59;69.05
64841;BME280;51307;52.162;7.560;2024-02-26T11:54:54;100021.66;;;6.68;68.64
64841;BME280;51307;52.162;7.560;2024-02-26T11:59:47;100031.69;;;6.56;68.93
64841;BME280;51307;52.162;7.560;2024-02-26T12:05:24;100032.84;;;6.71;69.68
64841;BME280;51307;52.162;7.560;2024-02-26T12:07:55;100040.00;;;6.79;69.23
64841;BME280;51307;52.162;7.560;2024-02-26T12:10:28;100037.78;;;6.66;69.40
64841;BME280;51307;52.162;7.560;2024-02-26T12:13:02;100045.50;;;6.78;68.91
64841;BME280;51307;52.162;7.560;2024-02-26T12:15:36;100050.75;;;6.69;68.82
64841;BME280;51307;52.162;7.560;2024-02-26T12:18:05;100057.75;;;6.70;69.06
64841;BME280;51307;52.162;7.560;2024-02-26T12:20:31;100064.91;;;6.70;69.46
64841;BME280;51307;52.162;7.560;2024-02-26T12:22:58;100059.09;;;6.74;69.46
64841;BME280;51307;52.162;7.560;2024-02-26T12:25:27;100059.81;;;6.77;69.45
64841;BME280;51307;52.162;7.560;2024-02-26T12:27:53;100055.09;;;6.70;69.21
64841;BME280;51307;52.162;7.560;2024-02-26T12:30:19;100061.44;;;6.78;69.75
64841;BME280;51307;52.162;7.560;2024-02-26T12:32:47;100063.13;;;6.79;70.28
64841;BME280;51307;52.162;7.560;2024-02-26T12:35:13;100071.69;;;6.72;70.07
64841;BME280;51307;52.162;7.560;2024-02-26T12:37:39;100073.16;;;6.85;69.86
64841;BME280;51307;52.162;7.560;2024-02-26T12:40:06;100073.16;;;6.85;70.47
64841;BME280;51307;52.162;7.560;2024-02-26T12:42:34;100078.97;;;6.88;69.95
64841;BME280;51307;52.162;7.560;2024-02-26T12:45:10;100083.41;;;6.80;69.88
64841;BME280;51307;52.162;7.560;2024-02-26T12:50:02;100093.06;;;6.81;70.27
64841;BME280;51307;52.162;7.560;2024-02-26T12:52:31;100095.50;;;6.74;70.52
64841;BME280;51307;52.162;7.560;2024-02-26T12:54:57;100102.13;;;6.70;70.52
64841;BME280;51307;52.162;7.560;2024-02-26T12:57:24;100104.91;;;6.68;71.17
64841;BME280;51307;52.162;7.560;2024-02-26T12:59:50;100112.34;;;6.83;70.83
64841;BME280;51307;52.162;7.560;2024-02-26T13:02:16;100110.97;;;6.79;70.80
64841;BME280;51307;52.162;7.560;2024-02-26T13:04:42;100110.00;;;6.80;71.00
64841;BME280;51307;52.162;7.560;2024-02-26T13:07:07;100117.22;;;6.87;70.53
64841;BME280;51307;52.162;7.560;2024-02-26T13:09:34;100118.53;;;6.83;71.07
64841;BME280;51307;52.162;7.560;2024-02-26T13:12:04;100122.38;;;6.89;71.29
64841;BME280;51307;52.162;7.560;2024-02-26T13:14:29;100128.38;;;6.91;72.14
64841;BME280;51307;52.162;7.560;2024-02-26T13:17:00;100130.63;;;6.96;71.88